createdAt,value
2023-05-07T00:03:08.238Z,99.20
2023-05-07T00:08:07.144Z,99.40
2023-05-07T00:13:05.598Z,99.50
2023-05-07T00:18:03.974Z,99.50
2023-05-07T00:23:03.787Z,99.70
2023-05-07T00:28:05.100Z,99.30
2023-05-07T00:33:03.660Z,99.30
2023-05-07T00:38:03.697Z,98.90
2023-05-07T00:43:02.300Z,99.20
2023-05-07T00:48:02.873Z,99.10
2023-05-07T00:53:02.505Z,99.00
2023-05-07T00:58:02.448Z,99.10
2023-05-07T01:03:01.149Z,99.20
2023-05-07T01:08:01.013Z,98.90
2023-05-07T01:13:02.713Z,99.30
2023-05-07T01:18:01.642Z,98.80
2023-05-07T01:23:08.599Z,99.10
2023-05-07T01:28:07.159Z,99.30
2023-05-07T01:33:12.754Z,99.30
2023-05-07T01:38:12.758Z,99.20
2023-05-07T01:43:12.052Z,99.00
2023-05-07T01:48:13.773Z,99.10
2023-05-07T01:53:13.635Z,99.00
2023-05-07T01:58:12.395Z,99.00
2023-05-07T02:03:11.163Z,98.80
2023-05-07T02:08:21.694Z,99.00
2023-05-07T02:13:21.233Z,99.20
2023-05-07T02:18:19.948Z,99.20
2023-05-07T02:23:18.505Z,99.20
2023-05-07T02:28:18.595Z,99.00
2023-05-07T02:33:31.449Z,98.80
2023-05-07T02:38:30.451Z,99.10
2023-05-07T02:43:30.886Z,99.00
2023-05-07T02:48:29.271Z,99.00
2023-05-07T02:53:28.532Z,98.70
2023-05-07T02:58:27.496Z,98.90
2023-05-07T03:03:27.520Z,98.90
2023-05-07T03:08:26.418Z,99.40
2023-05-07T03:13:25.079Z,99.50
2023-05-07T03:18:24.537Z,99.20
2023-05-07T03:23:24.959Z,99.20
2023-05-07T03:28:23.782Z,99.20
2023-05-07T03:33:28.692Z,99.30
2023-05-07T03:38:29.706Z,98.90
2023-05-07T03:43:29.626Z,99.40
2023-05-07T03:48:34.807Z,99.40
2023-05-07T03:53:34.796Z,99.30
2023-05-07T03:58:33.476Z,99.20
2023-05-07T04:03:37.588Z,99.10
2023-05-07T04:08:38.445Z,99.20
2023-05-07T04:13:38.577Z,98.80
2023-05-07T04:18:38.994Z,98.80
2023-05-07T04:23:38.835Z,98.80
2023-05-07T04:28:42.034Z,99.20
2023-05-07T04:33:40.682Z,99.20
2023-05-07T04:38:44.054Z,99.30
2023-05-07T04:43:43.070Z,99.30
2023-05-07T04:48:44.042Z,99.70
2023-05-07T04:53:44.784Z,99.40
2023-05-07T04:58:43.444Z,99.60
2023-05-07T05:03:42.731Z,99.60
2023-05-07T05:08:41.914Z,99.50
2023-05-07T05:13:43.578Z,99.40
2023-05-07T05:18:47.229Z,99.50
2023-05-07T05:23:48.868Z,99.50
2023-05-07T05:28:53.242Z,99.70
2023-05-07T05:33:53.969Z,99.90
2023-05-07T05:38:52.307Z,99.90
2023-05-07T05:43:52.663Z,99.90
2023-05-07T05:55:40.758Z,99.90
2023-05-07T06:01:29.984Z,99.90
2023-05-07T06:06:33.927Z,99.70
2023-05-07T06:11:34.643Z,99.90
2023-05-07T06:16:33.367Z,99.70
2023-05-07T06:21:33.641Z,99.80
2023-05-07T06:26:32.504Z,99.70
2023-05-07T06:31:33.825Z,99.70
2023-05-07T06:36:40.234Z,99.70
2023-05-07T06:41:58.142Z,99.70
2023-05-07T06:47:01.678Z,99.90
2023-05-07T06:52:01.867Z,99.70
2023-05-07T06:57:02.006Z,99.90
2023-05-07T07:02:03.768Z,99.70
2023-05-07T07:07:03.872Z,99.90
2023-05-07T07:12:02.453Z,99.70
2023-05-07T07:17:02.294Z,99.70
2023-05-07T07:22:01.141Z,99.90
2023-05-07T07:27:01.956Z,99.90
2023-05-07T07:32:01.845Z,99.80
2023-05-07T07:37:06.498Z,99.80
2023-05-07T07:42:07.632Z,99.70
2023-05-07T07:47:06.505Z,99.80
2023-05-07T07:52:06.206Z,99.70
2023-05-07T07:57:09.398Z,99.70
2023-05-07T08:02:08.473Z,99.60
2023-05-07T08:07:08.224Z,99.60
2023-05-07T08:18:36.107Z,99.40
2023-05-07T08:23:35.947Z,99.40
2023-05-07T08:28:36.262Z,99.40
2023-05-07T08:33:36.209Z,99.40
2023-05-07T08:38:35.194Z,99.50
2023-05-07T08:43:36.196Z,99.50
2023-05-07T08:48:36.480Z,99.50
2023-05-07T08:53:43.584Z,99.50
2023-05-07T08:58:45.955Z,99.10
2023-05-07T09:03:48.627Z,99.10
2023-05-07T09:08:53.004Z,99.00
2023-05-07T09:13:55.983Z,99.00
2023-05-07T09:18:57.710Z,98.90
2023-05-07T09:23:57.583Z,98.90
2023-05-07T09:29:04.563Z,98.80
2023-05-07T09:34:06.687Z,98.50
2023-05-07T09:39:07.876Z,98.70
2023-05-07T09:44:08.253Z,98.40
2023-05-07T09:49:26.298Z,98.80
2023-05-07T09:54:34.681Z,98.40
2023-05-07T09:59:35.267Z,98.40
2023-05-07T10:04:39.382Z,98.30
2023-05-07T10:09:40.059Z,98.30
2023-05-07T10:14:43.361Z,98.10
2023-05-07T10:19:44.948Z,97.80
2023-05-07T10:24:46.536Z,97.80
2023-05-07T10:30:14.850Z,98.00
2023-05-07T10:35:19.824Z,97.90
2023-05-07T10:40:22.445Z,97.70
2023-05-07T10:45:23.909Z,97.40
2023-05-07T10:50:26.420Z,97.40
2023-05-07T10:55:31.372Z,97.50
2023-05-07T11:00:45.195Z,97.70
2023-05-07T11:06:12.276Z,97.80
2023-05-07T11:11:49.194Z,97.70
2023-05-07T11:17:05.221Z,97.40
2023-05-07T11:22:09.663Z,97.10
2023-05-07T11:27:14.284Z,97.40
2023-05-07T11:32:13.210Z,97.50
2023-05-07T11:37:21.682Z,97.50
2023-05-07T11:42:30.064Z,97.00
2023-05-07T11:47:29.033Z,97.20
2023-05-07T11:52:28.656Z,97.20
2023-05-07T11:57:27.639Z,97.20
2023-05-07T12:02:26.663Z,97.00
2023-05-07T12:07:27.117Z,96.60
2023-05-07T12:12:28.250Z,95.80
2023-05-07T12:17:27.327Z,96.00
2023-05-07T12:22:25.858Z,95.60
2023-05-07T12:27:24.191Z,95.90
2023-05-07T12:32:24.594Z,95.70
2023-05-07T12:37:29.019Z,95.00
2023-05-07T12:42:29.937Z,94.20
2023-05-07T12:47:29.779Z,94.70
2023-05-07T12:52:28.418Z,95.40
2023-05-07T12:57:26.918Z,95.10
2023-05-07T13:02:37.233Z,93.50
2023-05-07T13:07:35.870Z,93.60
2023-05-07T13:13:00.541Z,93.40
2023-05-07T13:18:00.574Z,93.40
2023-05-07T13:22:59.164Z,92.90
2023-05-07T13:28:09.563Z,93.10
2023-05-07T13:33:11.414Z,92.80
2023-05-07T13:38:10.057Z,93.60
2023-05-07T13:43:36.455Z,94.00
2023-05-07T13:48:36.388Z,92.70
2023-05-07T13:53:34.938Z,92.60
2023-05-07T13:58:33.602Z,91.30
2023-05-07T14:03:33.243Z,91.00
2023-05-07T14:08:33.179Z,92.00
2023-05-07T14:13:32.234Z,91.30
2023-05-07T14:18:31.187Z,91.40
2023-05-07T14:23:29.734Z,91.00
2023-05-07T14:28:30.029Z,91.30
2023-05-07T14:33:28.739Z,92.00
2023-05-07T14:38:27.260Z,91.70
2023-05-07T14:43:25.963Z,91.70
2023-05-07T14:48:25.964Z,91.00
2023-05-07T14:53:24.798Z,91.80
2023-05-07T14:58:23.315Z,91.90
2023-05-07T15:03:21.923Z,90.80
2023-05-07T15:08:21.917Z,91.10
2023-05-07T15:13:20.476Z,91.10
2023-05-07T15:18:22.533Z,91.30
2023-05-07T15:23:23.143Z,91.10
2023-05-07T15:28:22.078Z,90.20
2023-05-07T15:33:20.738Z,91.10
2023-05-07T15:38:19.262Z,90.20
2023-05-07T15:43:19.181Z,90.40
2023-05-07T15:48:17.747Z,90.20
2023-05-07T15:53:16.286Z,91.40
2023-05-07T15:58:14.786Z,90.90
2023-05-07T16:03:14.813Z,90.70
2023-05-07T16:08:13.428Z,90.70
2023-05-07T16:13:11.997Z,90.90
2023-05-07T16:18:11.030Z,90.60
2023-05-07T16:23:10.982Z,90.10
2023-05-07T16:28:09.490Z,90.50
2023-05-07T16:33:08.520Z,90.30
2023-05-07T16:38:10.630Z,90.00
2023-05-07T16:43:11.224Z,90.20
2023-05-07T16:48:09.418Z,90.50
2023-05-07T16:53:08.669Z,90.10
2023-05-07T16:58:07.643Z,90.80
2023-05-07T17:03:07.502Z,89.90
2023-05-07T17:08:06.363Z,90.70
2023-05-07T17:13:04.887Z,91.10
2023-05-07T17:18:03.935Z,90.60
2023-05-07T17:23:03.808Z,90.80
2023-05-07T17:28:02.280Z,90.90
2023-05-07T17:33:13.061Z,91.00
2023-05-07T17:38:20.028Z,91.10
2023-05-07T17:43:18.589Z,91.10
2023-05-07T17:48:17.754Z,91.10
2023-05-07T17:53:16.247Z,91.20
2023-05-07T17:58:16.015Z,91.20
2023-05-07T18:03:14.546Z,91.30
2023-05-07T18:08:13.041Z,90.90
2023-05-07T18:13:11.626Z,91.40
2023-05-07T18:18:11.934Z,91.30
2023-05-07T18:23:10.527Z,91.30
2023-05-07T18:28:09.119Z,91.40
2023-05-07T18:33:07.710Z,91.40
2023-05-07T18:38:07.655Z,91.10
2023-05-07T18:43:57.157Z,91.30
2023-05-07T18:48:55.676Z,91.40
2023-05-07T18:53:55.618Z,91.80
2023-05-07T18:58:54.145Z,91.90
2023-05-07T19:03:52.357Z,91.50
2023-05-07T19:08:51.218Z,91.70
2023-05-07T19:13:51.435Z,92.00
2023-05-07T19:18:50.398Z,92.10
2023-05-07T19:23:51.143Z,91.90
2023-05-07T19:29:06.768Z,92.20
2023-05-07T19:34:11.528Z,91.80
2023-05-07T19:39:10.338Z,92.10
2023-05-07T19:44:10.478Z,91.90
2023-05-07T19:49:11.172Z,92.10
2023-05-07T19:54:10.630Z,92.10
2023-05-07T19:59:10.227Z,92.20
2023-05-07T20:04:08.796Z,92.20
2023-05-07T20:09:10.524Z,92.40
2023-05-07T20:14:10.254Z,92.40
2023-05-07T20:19:09.183Z,92.60
2023-05-07T20:24:08.985Z,92.60
2023-05-07T20:29:07.505Z,92.60
2023-05-07T20:34:07.721Z,92.60
2023-05-07T20:39:06.290Z,92.50
2023-05-07T20:44:04.831Z,92.50
2023-05-07T20:49:03.569Z,92.00
2023-05-07T20:54:03.093Z,92.20
2023-05-07T20:59:01.198Z,92.70
2023-05-07T21:04:00.054Z,92.20
2023-05-07T21:15:48.478Z,92.60
2023-05-07T21:20:46.961Z,92.80
2023-05-07T21:25:47.482Z,92.80
2023-05-07T21:30:47.334Z,93.00
2023-05-07T21:35:45.882Z,93.10
2023-05-07T21:40:44.457Z,93.00
2023-05-07T21:45:42.618Z,93.00
2023-05-07T21:50:42.777Z,93.10
2023-05-07T21:55:41.247Z,93.20
2023-05-07T22:00:39.389Z,93.20
2023-05-07T22:05:38.205Z,93.30
2023-05-07T22:10:38.206Z,93.30
2023-05-07T22:15:45.451Z,93.40
2023-05-07T22:20:48.308Z,93.40
2023-05-07T22:25:48.421Z,93.40
2023-05-07T22:30:46.666Z,93.40
2023-05-07T22:35:45.506Z,93.20
2023-05-07T22:40:44.065Z,93.30
2023-05-07T22:45:43.970Z,93.40
2023-05-07T22:50:42.609Z,93.50
2023-05-07T22:55:41.270Z,93.50
2023-05-07T23:00:39.988Z,93.60
2023-05-07T23:05:40.009Z,93.70
2023-05-07T23:10:38.558Z,93.30
2023-05-07T23:15:37.067Z,94.00
2023-05-07T23:20:36.043Z,93.80
2023-05-07T23:25:35.939Z,93.60
2023-05-07T23:30:34.770Z,93.60
2023-05-07T23:35:33.653Z,93.20
2023-05-07T23:40:32.149Z,93.40
2023-05-07T23:45:31.992Z,93.30
2023-05-07T23:50:30.482Z,93.10
2023-05-07T23:55:28.996Z,93.60
